createdAt,value
2019-02-02T00:00:15.575Z,72.56
2019-02-02T00:02:43.928Z,72.93
2019-02-02T00:05:12.619Z,72.56
2019-02-02T00:07:40.990Z,72.36
2019-02-02T00:10:09.349Z,72.18
2019-02-02T00:12:37.729Z,71.84
2019-02-02T00:15:09.275Z,71.80
2019-02-02T00:17:37.614Z,71.58
2019-02-02T00:20:10.907Z,71.67
2019-02-02T00:22:39.268Z,71.71
2019-02-02T00:25:07.622Z,71.46
2019-02-02T00:27:41.519Z,71.26
2019-02-02T00:30:12.865Z,71.26
2019-02-02T00:32:41.196Z,71.34
2019-02-02T00:35:09.610Z,71.33
2019-02-02T00:37:37.949Z,71.31
2019-02-02T00:40:09.589Z,71.48
2019-02-02T00:42:37.936Z,71.45
2019-02-02T00:45:13.050Z,71.68
2019-02-02T00:47:41.398Z,72.08
2019-02-02T00:50:11.390Z,71.73
2019-02-02T00:52:39.778Z,71.84
2019-02-02T00:55:11.382Z,71.67
2019-02-02T00:57:39.779Z,71.69
2019-02-02T01:00:24.840Z,72.27
2019-02-02T01:02:53.209Z,72.25
2019-02-02T01:05:22.708Z,72.42
2019-02-02T01:07:51.923Z,72.42
2019-02-02T01:10:37.749Z,72.38
2019-02-02T01:13:06.337Z,72.56
2019-02-02T01:15:34.705Z,72.71
2019-02-02T01:18:03.049Z,72.79
2019-02-02T01:20:31.432Z,72.25
2019-02-02T01:22:59.803Z,72.21
2019-02-02T01:25:28.185Z,72.15
2019-02-02T01:28:04.859Z,72.14
2019-02-02T01:30:26.658Z,72.27
2019-02-02T01:32:55.001Z,72.24
2019-02-02T01:35:23.358Z,72.15
2019-02-02T01:37:51.722Z,72.22
2019-02-02T01:40:22.508Z,71.67
2019-02-02T01:42:50.877Z,72.19
2019-02-02T01:45:26.808Z,72.12
2019-02-02T01:47:55.653Z,71.89
2019-02-02T01:50:28.478Z,71.84
2019-02-02T01:52:57.121Z,72.25
2019-02-02T01:55:25.656Z,72.38
2019-02-02T01:57:54.014Z,72.39
2019-02-02T02:00:31.367Z,72.23
2019-02-02T02:02:59.727Z,72.24
2019-02-02T02:05:28.079Z,72.44
2019-02-02T02:07:56.448Z,72.14
2019-02-02T02:10:24.796Z,71.82
2019-02-02T02:12:53.162Z,71.75
2019-02-02T02:15:21.544Z,71.40
2019-02-02T02:17:49.918Z,71.69
2019-02-02T02:20:19.689Z,71.64
2019-02-02T02:22:49.216Z,71.86
2019-02-02T02:25:19.024Z,72.41
2019-02-02T02:27:47.363Z,72.29
2019-02-02T02:30:17.672Z,72.44
2019-02-02T02:32:46.054Z,72.48
2019-02-02T02:35:14.496Z,72.80
2019-02-02T02:37:42.843Z,72.49
2019-02-02T02:40:14.338Z,72.42
2019-02-02T02:42:42.793Z,72.49
2019-02-02T02:45:11.771Z,72.15
2019-02-02T02:47:40.143Z,71.96
2019-02-02T02:50:16.783Z,71.75
2019-02-02T02:52:45.141Z,71.31
2019-02-02T02:55:14.865Z,71.38
2019-02-02T02:57:43.219Z,71.32
2019-02-02T03:00:23.499Z,71.20
2019-02-02T03:02:51.864Z,71.72
2019-02-02T03:05:20.246Z,71.80
2019-02-02T03:07:49.838Z,71.74
2019-02-02T03:10:20.121Z,72.16
2019-02-02T03:12:48.993Z,71.96
2019-02-02T03:15:18.497Z,71.71
2019-02-02T03:17:47.247Z,72.00
2019-02-02T03:20:16.358Z,71.67
2019-02-02T03:22:44.755Z,71.66
2019-02-02T03:25:15.429Z,71.43
2019-02-02T03:27:43.826Z,71.61
2019-02-02T03:30:14.993Z,71.61
2019-02-02T03:32:43.518Z,71.50
2019-02-02T03:35:13.552Z,71.35
2019-02-02T03:37:42.196Z,71.30
2019-02-02T03:40:18.190Z,71.57
2019-02-02T03:42:46.604Z,71.61
2019-02-02T03:45:16.985Z,71.72
2019-02-02T03:47:45.402Z,71.71
2019-02-02T03:50:13.846Z,72.07
2019-02-02T03:52:42.192Z,71.99
2019-02-02T03:55:13.150Z,72.11
2019-02-02T03:57:41.512Z,72.11
2019-02-02T04:00:12.582Z,72.02
2019-02-02T04:02:40.935Z,72.24
2019-02-02T04:05:13.003Z,72.39
2019-02-02T04:07:41.378Z,72.10
2019-02-02T04:10:12.182Z,72.05
2019-02-02T04:12:40.617Z,72.54
2019-02-02T04:15:10.603Z,72.25
2019-02-02T04:17:39.004Z,72.08
2019-02-02T04:20:10.748Z,71.98
2019-02-02T04:22:39.143Z,72.48
2019-02-02T04:25:08.226Z,72.72
2019-02-02T04:27:36.583Z,72.83
2019-02-02T04:30:14.378Z,72.37
2019-02-02T04:32:42.724Z,72.14
2019-02-02T04:35:11.154Z,71.41
2019-02-02T04:37:39.501Z,70.83
2019-02-02T04:40:10.599Z,70.62
2019-02-02T04:42:38.943Z,70.86
2019-02-02T04:45:09.662Z,71.35
2019-02-02T04:47:38.074Z,71.50
2019-02-02T04:50:09.572Z,71.95
2019-02-02T04:52:37.923Z,71.80
2019-02-02T04:55:07.611Z,71.77
2019-02-02T04:57:35.993Z,71.42
2019-02-02T05:00:06.875Z,71.25
2019-02-02T05:02:35.182Z,71.66
2019-02-02T05:05:04.022Z,71.34
2019-02-02T05:07:32.391Z,71.47
2019-02-02T05:10:00.826Z,71.38
2019-02-02T05:12:29.303Z,71.98
2019-02-02T05:14:57.754Z,71.78
2019-02-02T05:17:26.139Z,71.87
2019-02-02T05:19:54.567Z,71.88
2019-02-02T05:22:22.976Z,71.71
2019-02-02T05:24:51.333Z,71.82
2019-02-02T05:27:19.677Z,71.38
2019-02-02T05:29:48.045Z,70.95
2019-02-02T05:32:16.403Z,70.61
2019-02-02T05:34:44.779Z,70.84
2019-02-02T05:37:13.240Z,70.98
2019-02-02T05:39:41.623Z,71.16
2019-02-02T05:42:09.978Z,71.17
2019-02-02T05:44:38.318Z,71.26
2019-02-02T05:47:06.752Z,71.50
2019-02-02T05:49:35.233Z,71.99
2019-02-02T05:52:03.989Z,72.03
2019-02-02T05:54:32.365Z,71.98
2019-02-02T05:57:00.753Z,72.04
2019-02-02T05:59:29.409Z,72.12
2019-02-02T06:02:00.419Z,72.41
2019-02-02T06:04:28.781Z,72.38
2019-02-02T06:06:57.210Z,72.25
2019-02-02T06:09:25.591Z,72.22
2019-02-02T06:11:53.923Z,71.84
2019-02-02T06:14:22.277Z,71.41
2019-02-02T06:16:50.673Z,71.00
2019-02-02T06:19:19.059Z,71.11
2019-02-02T06:21:47.415Z,70.80
2019-02-02T06:24:15.826Z,70.94
2019-02-02T06:26:44.149Z,71.21
2019-02-02T06:29:12.495Z,71.16
2019-02-02T06:31:40.910Z,71.14
2019-02-02T06:34:09.259Z,71.62
2019-02-02T06:36:37.619Z,71.62
2019-02-02T06:39:06.983Z,71.71
2019-02-02T06:41:35.355Z,71.59
2019-02-02T06:44:03.737Z,71.74
2019-02-02T06:46:43.033Z,71.57
2019-02-02T06:49:02.218Z,71.57
2019-02-02T06:51:30.564Z,71.55
2019-02-02T06:53:58.929Z,71.12
2019-02-02T06:56:27.332Z,70.72
2019-02-02T06:58:55.741Z,70.67
2019-02-02T07:01:24.038Z,70.94
2019-02-02T07:03:52.454Z,71.39
2019-02-02T07:06:20.795Z,71.51
2019-02-02T07:08:49.155Z,71.90
2019-02-02T07:11:17.529Z,71.66
2019-02-02T07:13:45.884Z,71.52
2019-02-02T07:16:14.224Z,71.25
2019-02-02T07:18:42.595Z,71.02
2019-02-02T07:21:10.985Z,70.98
2019-02-02T07:23:39.345Z,71.18
2019-02-02T07:26:07.690Z,71.84
2019-02-02T07:28:36.080Z,71.87
2019-02-02T07:31:04.505Z,71.63
2019-02-02T07:33:32.881Z,71.41
2019-02-02T07:36:01.255Z,71.55
2019-02-02T07:38:29.582Z,71.37
2019-02-02T07:40:57.923Z,71.15
2019-02-02T07:43:26.288Z,70.96
2019-02-02T07:45:54.711Z,70.74
2019-02-02T07:48:23.068Z,70.49
2019-02-02T07:50:53.222Z,70.57
2019-02-02T07:53:21.691Z,71.19
2019-02-02T07:55:50.067Z,71.76
2019-02-02T07:58:18.431Z,71.58
2019-02-02T08:00:46.781Z,71.29
2019-02-02T08:03:15.187Z,70.95
2019-02-02T08:05:43.580Z,70.67
2019-02-02T08:08:11.986Z,70.49
2019-02-02T08:10:40.406Z,70.40
2019-02-02T08:13:08.758Z,70.29
2019-02-02T08:15:37.466Z,70.13
2019-02-02T08:18:06.000Z,70.38
2019-02-02T08:20:34.352Z,70.88
2019-02-02T08:23:02.776Z,70.96
2019-02-02T08:25:31.121Z,70.76
2019-02-02T08:27:59.500Z,70.72
2019-02-02T08:30:30.760Z,70.51
2019-02-02T08:32:59.205Z,70.35
2019-02-02T08:35:27.559Z,70.17
2019-02-02T08:37:55.897Z,70.00
2019-02-02T08:40:24.337Z,69.82
2019-02-02T08:42:52.686Z,69.80
2019-02-02T08:45:21.099Z,69.90
2019-02-02T08:47:49.515Z,70.28
2019-02-02T08:50:29.061Z,70.49
2019-02-02T08:52:58.134Z,70.88
2019-02-02T08:55:26.511Z,70.88
2019-02-02T08:57:54.880Z,70.80
2019-02-02T09:00:23.243Z,70.93
2019-02-02T09:02:51.643Z,71.12
2019-02-02T09:05:22.564Z,71.34
2019-02-02T09:07:51.025Z,71.48
2019-02-02T09:10:22.890Z,71.64
2019-02-02T09:12:51.265Z,71.39
2019-02-02T09:15:19.920Z,70.98
2019-02-02T09:17:48.270Z,70.88
2019-02-02T09:20:16.716Z,70.78
2019-02-02T09:22:46.266Z,70.57
2019-02-02T09:25:16.545Z,70.78
2019-02-02T09:27:44.988Z,70.89
2019-02-02T09:30:16.904Z,70.62
2019-02-02T09:32:45.277Z,70.46
2019-02-02T09:35:13.658Z,70.25
2019-02-02T09:37:42.056Z,70.11
2019-02-02T09:40:16.192Z,69.94
2019-02-02T09:42:44.847Z,69.79
2019-02-02T09:45:15.380Z,69.57
2019-02-02T09:47:43.777Z,69.52
2019-02-02T09:50:14.796Z,69.88
2019-02-02T09:52:43.167Z,70.69
2019-02-02T09:55:14.021Z,71.39
2019-02-02T09:57:42.451Z,71.16
2019-02-02T10:00:22.525Z,70.62
2019-02-02T10:02:51.740Z,70.61
2019-02-02T10:05:20.081Z,70.24
2019-02-02T10:07:48.659Z,70.06
2019-02-02T10:10:22.788Z,70.02
2019-02-02T10:12:51.432Z,70.72
2019-02-02T10:15:20.153Z,71.46
2019-02-02T10:17:49.875Z,71.86
2019-02-02T10:20:23.601Z,71.82
2019-02-02T10:22:52.052Z,71.33
2019-02-02T10:25:23.201Z,70.75
2019-02-02T10:27:51.575Z,70.43
2019-02-02T10:30:28.708Z,70.70
2019-02-02T10:32:57.059Z,70.98
2019-02-02T10:35:25.429Z,71.38
2019-02-02T10:37:54.100Z,71.63
2019-02-02T10:40:22.454Z,71.61
2019-02-02T10:42:51.273Z,71.87
2019-02-02T10:45:19.923Z,72.33
2019-02-02T10:47:48.452Z,72.36
2019-02-02T10:50:19.484Z,71.99
2019-02-02T10:52:47.908Z,71.70
2019-02-02T10:55:16.456Z,71.22
2019-02-02T10:57:44.914Z,71.68
2019-02-02T11:00:16.384Z,72.01
2019-02-02T11:02:44.810Z,72.15
2019-02-02T11:05:13.253Z,72.31
2019-02-02T11:07:41.804Z,72.05
2019-02-02T11:10:18.938Z,71.92
2019-02-02T11:12:47.652Z,71.47
2019-02-02T11:15:21.334Z,70.73
2019-02-02T11:17:49.833Z,70.15
2019-02-02T11:20:24.088Z,69.89
2019-02-02T11:22:52.819Z,69.73
2019-02-02T11:25:21.201Z,69.62
2019-02-02T11:27:49.685Z,69.41
2019-02-02T11:30:19.289Z,69.57
2019-02-02T11:32:47.694Z,69.66
2019-02-02T11:35:18.546Z,69.72
2019-02-02T11:37:46.904Z,69.83
2019-02-02T11:40:17.954Z,69.93
2019-02-02T11:42:46.298Z,69.95
2019-02-02T11:45:15.200Z,69.98
2019-02-02T11:47:43.589Z,69.83
2019-02-02T11:50:17.204Z,69.74
2019-02-02T11:52:45.563Z,69.95
2019-02-02T11:55:16.176Z,69.89
2019-02-02T11:57:44.537Z,69.65
2019-02-02T12:00:16.503Z,69.50
2019-02-02T12:02:49.632Z,69.45
2019-02-02T12:05:15.259Z,70.39
2019-02-02T12:07:43.647Z,71.08
2019-02-02T12:10:20.887Z,71.27
2019-02-02T12:12:49.288Z,71.22
2019-02-02T12:15:19.251Z,71.35
2019-02-02T12:17:48.270Z,70.87
2019-02-02T12:20:21.914Z,70.53
2019-02-02T12:22:50.318Z,70.15
2019-02-02T12:25:18.769Z,69.86
2019-02-02T12:27:47.124Z,70.37
2019-02-02T12:30:20.801Z,70.90
2019-02-02T12:32:49.148Z,70.88
2019-02-02T12:35:19.636Z,70.81
2019-02-02T12:37:49.652Z,70.55
2019-02-02T12:40:19.822Z,70.53
2019-02-02T12:42:48.185Z,70.99
2019-02-02T12:45:22.290Z,71.47
2019-02-02T12:47:50.977Z,71.88
2019-02-02T12:50:19.374Z,72.36
2019-02-02T12:52:47.719Z,72.22
2019-02-02T12:55:16.146Z,72.04
2019-02-02T12:57:44.518Z,72.03
2019-02-02T13:00:19.973Z,71.90
2019-02-02T13:02:48.358Z,71.48
2019-02-02T13:05:19.190Z,70.82
2019-02-02T13:07:47.575Z,70.31
2019-02-02T13:10:24.603Z,70.09
2019-02-02T13:12:52.535Z,70.24
2019-02-02T13:15:20.892Z,70.44
2019-02-02T13:17:49.250Z,70.61
2019-02-02T13:20:18.078Z,70.84
2019-02-02T13:22:46.482Z,71.05
2019-02-02T13:25:18.090Z,70.76
2019-02-02T13:27:46.985Z,70.42
2019-02-02T13:30:30.131Z,70.20
2019-02-02T13:32:58.560Z,69.85
2019-02-02T13:35:28.567Z,69.56
2019-02-02T13:37:57.069Z,69.50
2019-02-02T13:40:25.464Z,69.51
2019-02-02T13:42:53.833Z,69.54
2019-02-02T13:45:23.156Z,69.50
2019-02-02T13:47:51.593Z,69.50
2019-02-02T13:50:19.940Z,69.73
2019-02-02T13:52:49.568Z,69.85
2019-02-02T13:55:17.995Z,69.84
2019-02-02T13:57:46.321Z,70.04
2019-02-02T14:00:29.124Z,69.92
2019-02-02T14:03:02.999Z,69.82
2019-02-02T14:05:27.539Z,70.07
2019-02-02T14:07:55.916Z,70.06
2019-02-02T14:10:28.971Z,69.92
2019-02-02T14:12:57.360Z,69.95
2019-02-02T14:15:25.963Z,69.99
2019-02-02T14:17:54.311Z,69.90
2019-02-02T14:20:22.737Z,70.18
2019-02-02T14:22:51.275Z,70.00
2019-02-02T14:25:19.683Z,69.92
2019-02-02T14:27:48.027Z,69.83
2019-02-02T14:30:24.009Z,69.88
2019-02-02T14:32:54.693Z,69.87
2019-02-02T14:35:24.636Z,70.17
2019-02-02T14:37:52.983Z,70.22
2019-02-02T14:40:21.758Z,70.51
2019-02-02T14:42:50.126Z,70.45
2019-02-02T14:45:21.292Z,70.67
2019-02-02T14:47:49.762Z,70.58
2019-02-02T14:50:19.497Z,70.49
2019-02-02T14:52:48.010Z,70.47
2019-02-02T14:55:21.640Z,70.11
2019-02-02T14:57:50.047Z,69.89
2019-02-02T15:00:20.428Z,69.83
2019-02-02T15:02:48.838Z,69.97
2019-02-02T15:05:19.584Z,69.96
2019-02-02T15:07:48.247Z,70.03
2019-02-02T15:10:16.677Z,70.15
2019-02-02T15:12:45.020Z,69.99
2019-02-02T15:15:14.576Z,70.00
2019-02-02T15:17:44.614Z,70.29
2019-02-02T15:20:22.701Z,70.55
2019-02-02T15:22:51.287Z,70.45
2019-02-02T15:25:19.659Z,70.69
2019-02-02T15:27:48.039Z,70.63
2019-02-02T15:30:19.415Z,70.47
2019-02-02T15:32:47.888Z,70.64
2019-02-02T15:35:16.278Z,70.52
2019-02-02T15:37:44.633Z,70.44
2019-02-02T15:40:18.500Z,70.25
2019-02-02T15:42:47.323Z,70.09
2019-02-02T15:45:21.301Z,69.95
2019-02-02T15:47:49.952Z,70.00
2019-02-02T15:50:18.310Z,70.12
2019-02-02T15:52:47.313Z,70.35
2019-02-02T15:55:17.633Z,70.33
2019-02-02T15:57:46.115Z,70.42
2019-02-02T16:00:19.542Z,70.37
2019-02-02T16:02:47.878Z,70.49
2019-02-02T16:05:18.019Z,70.20
2019-02-02T16:07:46.388Z,70.16
2019-02-02T16:10:26.287Z,69.96
2019-02-02T16:12:54.718Z,69.94
2019-02-02T16:15:23.090Z,70.02
2019-02-02T16:17:51.673Z,69.96
2019-02-02T16:20:22.775Z,69.99
2019-02-02T16:22:51.128Z,70.25
2019-02-02T16:25:19.677Z,70.21
2019-02-02T16:27:48.017Z,70.27
2019-02-02T16:30:19.148Z,70.25
2019-02-02T16:32:47.510Z,70.50
2019-02-02T16:35:15.940Z,70.64
2019-02-02T16:37:44.295Z,70.60
2019-02-02T16:40:20.911Z,70.73
2019-02-02T16:42:49.293Z,70.75
2019-02-02T16:45:26.500Z,70.73
2019-02-02T16:47:54.936Z,70.58
2019-02-02T16:50:23.467Z,70.57
2019-02-02T16:52:51.852Z,70.43
2019-02-02T16:55:20.713Z,70.43
2019-02-02T16:57:49.075Z,70.25
2019-02-02T17:00:25.629Z,70.27
2019-02-02T17:02:54.098Z,70.10
2019-02-02T17:05:22.432Z,70.20
2019-02-02T17:07:51.270Z,70.12
2019-02-02T17:10:25.044Z,70.68
2019-02-02T17:12:53.417Z,70.49
2019-02-02T17:15:21.797Z,70.52
2019-02-02T17:17:50.190Z,70.37
2019-02-02T17:20:24.115Z,70.40
2019-02-02T17:22:52.842Z,70.69
2019-02-02T17:25:22.585Z,70.69
2019-02-02T17:27:52.487Z,70.56
2019-02-02T17:30:23.569Z,70.57
2019-02-02T17:32:52.976Z,70.58
2019-02-02T17:35:21.317Z,70.61
2019-02-02T17:37:49.695Z,70.97
2019-02-02T17:40:20.771Z,70.89
2019-02-02T17:42:49.189Z,70.90
2019-02-02T17:45:21.109Z,70.88
2019-02-02T17:47:49.771Z,70.71
2019-02-02T17:50:23.697Z,70.74
2019-02-02T17:52:52.436Z,70.78
2019-02-02T17:55:20.962Z,70.78
2019-02-02T17:57:49.290Z,70.82
2019-02-02T18:00:28.425Z,70.80
2019-02-02T18:02:56.771Z,70.82
2019-02-02T18:05:25.134Z,70.89
2019-02-02T18:07:53.525Z,70.88
2019-02-02T18:10:21.868Z,70.90
2019-02-02T18:12:50.257Z,70.91
2019-02-02T18:15:18.619Z,71.03
2019-02-02T18:17:46.997Z,71.08
2019-02-02T18:20:16.249Z,70.92
2019-02-02T18:22:44.851Z,70.86
2019-02-02T18:25:15.049Z,70.81
2019-02-02T18:27:43.375Z,70.87
2019-02-02T18:30:22.686Z,70.75
2019-02-02T18:32:51.370Z,70.85
2019-02-02T18:35:19.761Z,70.89
2019-02-02T18:37:48.124Z,71.21
2019-02-02T18:40:18.547Z,71.48
2019-02-02T18:42:46.912Z,71.45
2019-02-02T18:45:18.168Z,71.67
2019-02-02T18:47:46.530Z,71.58
2019-02-02T18:50:16.622Z,71.18
2019-02-02T18:52:46.522Z,71.11
2019-02-02T18:55:26.593Z,71.31
2019-02-02T18:57:54.960Z,71.26
2019-02-02T19:00:23.590Z,71.16
2019-02-02T19:02:51.951Z,71.15
2019-02-02T19:05:20.337Z,70.99
2019-02-02T19:07:48.688Z,71.15
2019-02-02T19:10:20.326Z,70.76
2019-02-02T19:12:48.718Z,70.73
2019-02-02T19:15:17.086Z,71.11
2019-02-02T19:17:45.453Z,71.04
2019-02-02T19:20:19.063Z,71.34
2019-02-02T19:22:47.442Z,71.69
2019-02-02T19:25:15.817Z,71.57
2019-02-02T19:27:44.231Z,71.52
2019-02-02T19:30:20.759Z,71.87
2019-02-02T19:32:49.157Z,71.40
2019-02-02T19:35:17.489Z,71.40
2019-02-02T19:37:45.863Z,71.34
2019-02-02T19:40:15.792Z,71.04
2019-02-02T19:42:44.678Z,71.01
2019-02-02T19:45:25.004Z,70.99
2019-02-02T19:47:53.394Z,70.92
2019-02-02T19:50:24.610Z,70.90
2019-02-02T19:52:53.345Z,70.92
2019-02-02T19:55:21.689Z,71.07
2019-02-02T19:57:50.158Z,71.14
2019-02-02T20:00:24.855Z,71.07
2019-02-02T20:02:53.902Z,71.64
2019-02-02T20:05:28.797Z,71.96
2019-02-02T20:07:52.411Z,71.76
2019-02-02T20:10:20.753Z,71.82
2019-02-02T20:12:49.132Z,71.52
2019-02-02T20:15:26.956Z,71.45
2019-02-02T20:17:55.318Z,71.09
2019-02-02T20:20:25.233Z,71.14
2019-02-02T20:22:53.827Z,71.13
2019-02-02T20:25:22.264Z,71.26
2019-02-02T20:27:50.708Z,71.09
2019-02-02T20:30:22.379Z,71.27
2019-02-02T20:32:50.810Z,71.42
2019-02-02T20:35:19.245Z,71.44
2019-02-02T20:37:47.734Z,71.29
2019-02-02T20:40:20.657Z,71.12
2019-02-02T20:42:49.087Z,71.24
2019-02-02T20:45:19.779Z,71.43
2019-02-02T20:47:48.128Z,71.59
2019-02-02T20:50:18.421Z,71.46
2019-02-02T20:52:47.942Z,71.36
2019-02-02T20:55:19.464Z,71.44
2019-02-02T20:57:48.442Z,71.20
2019-02-02T21:00:19.138Z,71.18
2019-02-02T21:02:47.683Z,71.40
2019-02-02T21:05:16.062Z,71.75
2019-02-02T21:07:44.518Z,71.58
2019-02-02T21:10:20.553Z,71.50
2019-02-02T21:12:48.919Z,71.58
2019-02-02T21:15:17.482Z,71.95
2019-02-02T21:17:50.215Z,72.07
2019-02-02T21:20:23.492Z,71.70
2019-02-02T21:22:52.230Z,71.50
2019-02-02T21:25:20.653Z,71.33
2019-02-02T21:27:49.056Z,71.51
2019-02-02T21:30:34.731Z,71.34
2019-02-02T21:33:03.797Z,71.35
2019-02-02T21:35:32.276Z,71.44
2019-02-02T21:38:00.646Z,71.10
2019-02-02T21:40:30.997Z,71.49
2019-02-02T21:42:59.385Z,71.74
2019-02-02T21:45:27.777Z,71.78
2019-02-02T21:47:56.211Z,71.72
2019-02-02T21:50:25.634Z,71.83
2019-02-02T21:52:54.636Z,72.07
2019-02-02T21:55:28.530Z,71.91
2019-02-02T21:57:57.168Z,71.78
2019-02-02T22:00:31.436Z,71.60
2019-02-02T22:03:00.127Z,71.34
2019-02-02T22:05:28.499Z,71.35
2019-02-02T22:07:56.934Z,71.75
2019-02-02T22:10:25.342Z,71.58
2019-02-02T22:12:54.301Z,71.48
2019-02-02T22:15:25.935Z,71.42
2019-02-02T22:17:54.312Z,71.38
2019-02-02T22:20:22.734Z,71.74
2019-02-02T22:22:51.313Z,71.45
2019-02-02T22:25:25.158Z,71.66
2019-02-02T22:27:56.472Z,71.37
2019-02-02T22:30:29.705Z,71.37
2019-02-02T22:32:58.084Z,71.54
2019-02-02T22:35:26.488Z,71.65
2019-02-02T22:37:55.151Z,71.52
2019-02-02T22:40:28.038Z,71.79
2019-02-02T22:42:56.417Z,71.63
2019-02-02T22:45:24.788Z,71.84
2019-02-02T22:47:53.314Z,71.77
2019-02-02T22:50:24.201Z,71.89
2019-02-02T22:52:52.720Z,71.96
2019-02-02T22:55:22.473Z,71.69
2019-02-02T22:57:50.872Z,71.60
2019-02-02T23:00:48.077Z,71.59
2019-02-02T23:03:25.876Z,71.34
2019-02-02T23:06:06.361Z,71.36
2019-02-02T23:08:49.808Z,71.22
2019-02-02T23:11:37.860Z,71.31
2019-02-02T23:14:26.002Z,71.26
2019-02-02T23:16:54.393Z,71.19
2019-02-02T23:19:22.777Z,71.41
2019-02-02T23:21:51.187Z,71.16
2019-02-02T23:24:19.579Z,71.46
2019-02-02T23:26:48.325Z,71.78
2019-02-02T23:29:16.750Z,71.97
2019-02-02T23:31:45.200Z,71.86
2019-02-02T23:34:13.597Z,71.58
2019-02-02T23:36:50.915Z,71.17
2019-02-02T23:39:12.142Z,71.13
2019-02-02T23:41:41.043Z,71.20
2019-02-02T23:44:09.812Z,71.21
2019-02-02T23:46:38.144Z,71.65
2019-02-02T23:49:06.898Z,71.82
2019-02-02T23:51:35.251Z,72.20
2019-02-02T23:54:03.640Z,72.29
2019-02-02T23:56:32.006Z,72.53
2019-02-02T23:59:00.385Z,72.67
